Time;durP1;ratioP1;P1;durP2;ratioP2;P2;SDS_P1;SDS_P2;PMS_P1;PMS_P2;Temp;Humidity;BMP_temperature;BMP_pressure;BME280_temperature;BME280_humidity;BME280_pressure;Samples;Min_cycle;Max_cycle;Signal;HPM_P1;HPM_P2
2021/01/20 00:00:20;;;;;;;4.30;2.97;;;10.60;61.20;;;;;;2094435;28;20024;-62
2021/01/20 00:01:41;;;;;;;5.38;2.85;;;10.60;61.00;;;;;;2097558;28;20406;-61
2021/01/20 00:03:03;;;;;;;4.25;3.13;;;10.60;61.20;;;;;;2092674;28;20094;-61
2021/01/20 00:04:23;;;;;;;3.53;2.97;;;10.60;60.90;;;;;;2093760;28;20037;-61
2021/01/20 00:05:44;;;;;;;4.38;3.08;;;10.60;60.90;;;;;;2096902;28;20036;-61
2021/01/20 00:07:05;;;;;;;4.80;3.05;;;10.60;60.90;;;;;;2096695;28;20111;-62
2021/01/20 00:08:26;;;;;;;5.57;3.30;;;10.60;60.80;;;;;;2098798;28;20033;-61
2021/01/20 00:09:47;;;;;;;5.93;3.40;;;10.60;60.60;;;;;;2090624;28;20234;-61
2021/01/20 00:11:08;;;;;;;3.70;3.08;;;10.60;60.50;;;;;;2095617;28;20036;-61
2021/01/20 00:12:29;;;;;;;5.82;3.75;;;10.60;60.70;;;;;;2095893;28;20024;-61
2021/01/20 00:13:50;;;;;;;5.20;4.03;;;10.60;60.70;;;;;;2096407;28;20438;-61
2021/01/20 00:15:16;;;;;;;6.30;3.80;;;10.60;60.40;;;;;;2093392;28;20045;-61
2021/01/20 00:16:37;;;;;;;3.67;3.35;;;10.60;60.40;;;;;;2095562;28;20348;-61
2021/01/20 00:17:57;;;;;;;6.57;4.03;;;10.60;60.50;;;;;;2098415;28;20036;-62
2021/01/20 00:19:18;;;;;;;6.28;3.65;;;10.60;60.50;;;;;;2093847;28;20039;-61
2021/01/20 00:20:39;;;;;;;4.18;3.38;;;10.60;60.30;;;;;;2098094;28;20017;-61
2021/01/20 00:22:00;;;;;;;3.53;3.13;;;10.60;60.50;;;;;;2097728;28;20119;-61
2021/01/20 00:23:21;;;;;;;4.15;3.60;;;10.50;60.50;;;;;;2093074;28;20099;-60
2021/01/20 00:24:42;;;;;;;5.07;3.63;;;10.50;60.30;;;;;;2097895;28;20059;-61
2021/01/20 00:26:03;;;;;;;4.22;3.45;;;10.50;60.50;;;;;;2096413;28;20024;-61
2021/01/20 00:27:24;;;;;;;6.00;3.60;;;10.50;60.50;;;;;;2099022;28;20028;-61
2021/01/20 00:28:45;;;;;;;4.97;3.88;;;10.50;60.50;;;;;;2097599;28;20028;-61
2021/01/20 00:30:10;;;;;;;5.60;3.75;;;10.50;60.40;;;;;;2098767;28;20021;-62
2021/01/20 00:31:30;;;;;;;5.28;4.05;;;10.50;60.50;;;;;;2097772;28;20066;-61
2021/01/20 00:32:51;;;;;;;5.25;3.90;;;10.50;60.50;;;;;;2099062;28;20036;-61
2021/01/20 00:34:12;;;;;;;5.95;3.90;;;10.50;60.40;;;;;;2096582;28;20025;-62
2021/01/20 00:35:33;;;;;;;4.53;3.67;;;10.50;60.50;;;;;;2096936;28;20082;-60
2021/01/20 00:36:55;;;;;;;4.93;4.05;;;10.50;60.60;;;;;;2099647;28;20033;-61
2021/01/20 00:38:16;;;;;;;6.25;3.83;;;10.50;60.60;;;;;;2094538;28;20181;-60
2021/01/20 00:39:37;;;;;;;4.53;3.55;;;10.50;60.50;;;;;;2099529;28;20037;-61
2021/01/20 00:40:58;;;;;;;6.45;4.30;;;10.50;60.60;;;;;;2097628;28;20127;-60
2021/01/20 00:42:19;;;;;;;4.88;3.70;;;10.50;60.70;;;;;;2100182;28;20189;-62
2021/01/20 00:43:40;;;;;;;6.47;3.90;;;10.50;60.70;;;;;;2098939;28;20036;-61
2021/01/20 00:45:01;;;;;;;5.00;4.20;;;10.50;60.60;;;;;;2099649;28;20120;-61
2021/01/20 00:46:22;;;;;;;5.13;3.80;;;10.50;60.50;;;;;;2101388;28;20036;-61
2021/01/20 00:47:43;;;;;;;6.07;4.32;;;10.50;60.50;;;;;;2102640;28;20024;-62
2021/01/20 00:49:04;;;;;;;4.25;3.78;;;10.50;60.40;;;;;;2101026;28;20036;-61
2021/01/20 00:50:25;;;;;;;6.35;4.22;;;10.50;60.70;;;;;;2097694;28;20020;-62
2021/01/20 00:51:46;;;;;;;6.38;4.20;;;10.50;60.70;;;;;;2099332;28;20056;-61
2021/01/20 00:53:07;;;;;;;6.32;4.32;;;10.50;60.70;;;;;;2101564;28;20112;-61
2021/01/20 00:54:27;;;;;;;4.90;4.30;;;10.50;60.60;;;;;;2100396;28;20024;-61
2021/01/20 00:55:49;;;;;;;7.95;4.10;;;10.50;60.50;;;;;;2100453;28;20032;-60
2021/01/20 00:57:10;;;;;;;5.22;4.50;;;10.50;60.70;;;;;;2101081;28;20103;-60
2021/01/20 00:58:31;;;;;;;6.82;4.53;;;10.40;60.70;;;;;;2096524;28;20032;-61
2021/01/20 00:59:51;;;;;;;6.15;4.63;;;10.50;60.70;;;;;;2094484;28;20040;-61
2021/01/20 01:01:12;;;;;;;5.63;3.90;;;10.50;60.80;;;;;;2094469;28;20379;-60
2021/01/20 01:02:36;;;;;;;4.47;3.97;;;10.50;60.90;;;;;;2099455;28;20363;-60
2021/01/20 01:03:57;;;;;;;5.55;4.65;;;10.40;60.90;;;;;;2098748;28;20056;-60
2021/01/20 01:05:18;;;;;;;4.60;3.97;;;10.50;60.90;;;;;;2098128;28;20052;-61
2021/01/20 01:06:39;;;;;;;5.28;4.53;;;10.50;60.90;;;;;;2100190;28;20029;-61
2021/01/20 01:08:00;;;;;;;5.03;4.13;;;10.50;60.80;;;;;;2093417;28;20048;-61
2021/01/20 01:09:21;;;;;;;6.18;4.32;;;10.50;60.70;;;;;;2092760;28;20628;-62
2021/01/20 01:10:41;;;;;;;5.45;3.83;;;10.50;60.80;;;;;;2096763;28;20115;-61
2021/01/20 01:12:03;;;;;;;5.85;3.85;;;10.50;60.80;;;;;;2099813;28;20021;-61
2021/01/20 01:13:24;;;;;;;5.80;4.03;;;10.50;60.90;;;;;;2099201;28;20039;-61
2021/01/20 01:14:45;;;;;;;5.60;4.22;;;10.50;60.70;;;;;;2098211;28;20012;-61
2021/01/20 01:16:06;;;;;;;4.85;4.05;;;10.50;60.90;;;;;;2093013;28;20033;-61
2021/01/20 01:17:27;;;;;;;4.30;3.85;;;10.50;60.80;;;;;;2099394;28;20024;-61
2021/01/20 01:18:48;;;;;;;5.18;3.58;;;10.50;61.00;;;;;;2097824;28;20037;-60
2021/01/20 01:20:09;;;;;;;4.80;3.67;;;10.50;61.10;;;;;;2093584;28;20033;-61
2021/01/20 01:21:31;;;;;;;5.15;3.72;;;10.60;61.10;;;;;;2098574;28;20025;-60
2021/01/20 01:22:56;;;;;;;4.90;3.50;;;10.60;60.80;;;;;;2099442;28;20032;-60
2021/01/20 01:24:17;;;;;;;4.97;3.80;;;10.60;60.80;;;;;;2095911;28;20140;-61
2021/01/20 01:25:38;;;;;;;5.20;3.85;;;10.60;60.90;;;;;;2100705;28;20119;-60
2021/01/20 01:27:00;;;;;;;4.60;3.88;;;10.60;61.00;;;;;;2091921;28;20032;-61
2021/01/20 01:28:21;;;;;;;4.30;3.38;;;10.60;60.90;;;;;;2096958;28;20093;-61
2021/01/20 01:29:42;;;;;;;4.25;3.85;;;10.70;60.80;;;;;;2098343;28;20021;-62
2021/01/20 01:31:02;;;;;;;4.07;3.67;;;10.70;60.70;;;;;;2092592;28;20021;-61
2021/01/20 01:32:23;;;;;;;4.70;3.78;;;10.70;60.70;;;;;;2099703;28;20017;-60
2021/01/20 01:33:44;;;;;;;5.00;3.63;;;10.70;60.60;;;;;;2100363;28;20025;-61
2021/01/20 01:35:05;;;;;;;5.50;3.58;;;10.70;60.60;;;;;;2097782;28;20100;-61
2021/01/20 01:36:26;;;;;;;5.03;3.38;;;10.70;60.50;;;;;;2090805;28;20026;-60
2021/01/20 01:37:47;;;;;;;4.47;3.20;;;10.70;60.30;;;;;;2097783;28;20550;-61
2021/01/20 01:39:08;;;;;;;4.22;3.33;;;10.80;60.40;;;;;;2101877;28;20028;-62
2021/01/20 01:40:29;;;;;;;4.65;3.72;;;10.80;60.20;;;;;;2099991;28;20025;-61
2021/01/20 01:41:50;;;;;;;3.63;3.30;;;10.80;60.30;;;;;;2100052;28;20043;-61
2021/01/20 01:43:11;;;;;;;3.85;3.17;;;10.80;60.20;;;;;;2099138;28;20025;-61
2021/01/20 01:44:32;;;;;;;3.92;3.17;;;10.80;60.00;;;;;;2098556;28;20013;-61
2021/01/20 01:45:53;;;;;;;4.68;3.60;;;10.80;60.00;;;;;;2098926;28;20020;-62
2021/01/20 01:47:14;;;;;;;3.85;3.35;;;10.90;59.90;;;;;;2092691;28;20025;-61
2021/01/20 01:48:34;;;;;;;5.38;3.22;;;10.80;59.90;;;;;;2095909;28;20046;-61
2021/01/20 01:49:56;;;;;;;3.83;2.92;;;10.90;60.10;;;;;;2096939;28;20031;-61
2021/01/20 01:51:17;;;;;;;3.72;3.08;;;10.90;59.90;;;;;;2093390;28;20048;-61
2021/01/20 01:52:38;;;;;;;3.95;2.90;;;10.90;59.80;;;;;;2100188;28;20112;-61
2021/01/20 01:53:59;;;;;;;3.88;3.28;;;10.90;59.90;;;;;;2093559;28;20468;-61
2021/01/20 01:55:20;;;;;;;4.97;3.38;;;11.00;59.90;;;;;;2094561;28;20036;-60
2021/01/20 01:56:42;;;;;;;4.47;3.22;;;11.00;59.90;;;;;;2098443;28;20021;-61
2021/01/20 01:58:04;;;;;;;4.10;3.08;;;11.00;59.70;;;;;;2091977;28;20037;-61
2021/01/20 01:59:24;;;;;;;4.30;3.33;;;11.00;59.80;;;;;;2098649;28;20355;-61
2021/01/20 02:00:46;;;;;;;4.32;3.35;;;11.00;59.80;;;;;;2099037;28;20108;-61
2021/01/20 02:02:07;;;;;;;5.13;3.30;;;11.00;59.80;;;;;;2105472;28;20156;-61
2021/01/20 02:03:28;;;;;;;4.50;3.60;;;11.00;59.60;;;;;;2099395;28;20108;-62
2021/01/20 02:04:49;;;;;;;4.32;3.35;;;11.00;59.70;;;;;;2096503;28;20028;-60
2021/01/20 02:06:11;;;;;;;4.80;3.10;;;11.00;59.70;;;;;;2092139;28;20020;-61
2021/01/20 02:07:34;;;;;;;3.20;2.90;;;11.10;59.70;;;;;;2098405;28;20035;-62
2021/01/20 02:08:55;;;;;;;5.13;3.35;;;11.10;59.70;;;;;;2099443;28;20060;-61
2021/01/20 02:10:16;;;;;;;3.67;3.25;;;11.10;59.60;;;;;;2093046;28;20036;-62
2021/01/20 02:12:10;;;;;;;6.10;3.25;;;11.10;59.80;;;;;;2098457;28;20108;-61
2021/01/20 02:13:40;;;;;;;5.50;3.45;;;11.10;59.60;;;;;;2097248;28;20058;-62
2021/01/20 02:15:20;;;;;;;4.95;3.25;;;11.10;59.80;;;;;;2092031;28;20025;-62
2021/01/20 02:16:43;;;;;;;;;;;11.10;59.60;;;;;;2097446;28;20017;-62
2021/01/20 02:18:09;;;;;;;4.50;3.10;;;11.20;59.70;;;;;;2096023;28;20000;-60
2021/01/20 02:19:54;;;;;;;3.92;2.88;;;11.20;59.80;;;;;;2096679;28;20037;-62
2021/01/20 02:21:33;;;;;;;4.32;3.30;;;11.20;59.40;;;;;;2091220;28;20448;-62
2021/01/20 02:22:57;;;;;;;3.63;2.75;;;11.20;59.50;;;;;;2099693;28;20606;-62
2021/01/20 02:24:26;;;;;;;3.38;3.08;;;11.20;59.80;;;;;;2095777;28;20036;-61
2021/01/20 02:26:13;;;;;;;3.92;2.88;;;11.30;59.60;;;;;;2098786;28;20051;-61
2021/01/20 02:27:47;;;;;;;4.78;3.00;;;11.30;59.50;;;;;;2095055;28;20036;-62
2021/01/20 02:29:29;;;;;;;3.58;2.80;;;11.30;59.50;;;;;;2099010;28;20049;-61
2021/01/20 02:30:50;;;;;;;3.63;3.30;;;11.30;59.70;;;;;;2097985;28;20412;-61
2021/01/20 02:32:11;;;;;;;3.75;3.22;;;11.30;59.60;;;;;;2098921;28;20084;-61
2021/01/20 02:33:34;;;;;;;4.88;3.33;;;11.40;59.80;;;;;;2098193;28;20083;-60
2021/01/20 02:34:57;;;;;;;3.88;3.00;;;11.40;59.60;;;;;;2096292;28;20074;-61
2021/01/20 02:36:20;;;;;;;3.80;3.33;;;11.30;59.70;;;;;;2093783;28;20032;-60
2021/01/20 02:37:40;;;;;;;3.35;3.00;;;11.40;59.80;;;;;;2098715;28;20099;-60
2021/01/20 02:39:02;;;;;;;3.22;2.83;;;11.40;59.90;;;;;;2100003;28;20096;-60
2021/01/20 02:40:23;;;;;;;3.30;3.00;;;11.40;59.80;;;;;;2094619;28;20322;-61
2021/01/20 02:41:44;;;;;;;4.35;2.90;;;11.40;59.90;;;;;;2100227;28;20116;-62
2021/01/20 02:43:05;;;;;;;3.33;3.03;;;11.40;59.90;;;;;;2092662;28;20033;-62
2021/01/20 02:44:26;;;;;;;4.25;3.03;;;11.40;59.80;;;;;;2096772;28;20103;-61
2021/01/20 02:45:47;;;;;;;3.08;2.75;;;11.50;59.90;;;;;;2091814;28;20044;-61
2021/01/20 02:47:09;;;;;;;3.47;2.83;;;11.40;59.90;;;;;;2092355;28;20044;-61
2021/01/20 02:48:30;;;;;;;3.95;2.85;;;11.50;59.90;;;;;;2099371;28;20056;-61
2021/01/20 02:49:51;;;;;;;3.00;2.70;;;11.50;60.50;;;;;;2097066;28;20110;-61
2021/01/20 02:51:15;;;;;;;3.25;2.95;;;11.50;59.90;;;;;;2098029;28;20027;-61
2021/01/20 02:52:48;;;;;;;4.22;2.90;;;11.50;59.90;;;;;;2095595;28;20028;-61
2021/01/20 02:54:11;;;;;;;3.08;2.60;;;11.50;59.60;;;;;;2093587;28;20024;-61
2021/01/20 02:55:34;;;;;;;2.80;2.53;;;11.60;59.90;;;;;;2098116;28;20025;-61
2021/01/20 02:56:58;;;;;;;3.08;2.78;;;11.60;59.90;;;;;;2100689;28;20399;-61
2021/01/20 02:58:31;;;;;;;3.30;2.60;;;11.60;59.70;;;;;;2094174;28;20040;-61
2021/01/20 02:59:54;;;;;;;3.28;2.63;;;11.60;59.50;;;;;;2096237;28;20091;-61
2021/01/20 03:01:16;;;;;;;4.38;2.90;;;11.60;59.80;;;;;;2094118;28;20116;-61
2021/01/20 03:02:39;;;;;;;2.55;2.33;;;11.60;59.80;;;;;;2098170;28;20029;-61
2021/01/20 03:04:01;;;;;;;4.20;2.60;;;11.60;59.70;;;;;;2091712;28;20061;-62
2021/01/20 03:05:23;;;;;;;3.17;2.72;;;11.60;59.60;;;;;;2093802;28;20036;-60
2021/01/20 03:06:46;;;;;;;3.35;2.63;;;11.70;59.80;;;;;;2097190;28;20075;-61
2021/01/20 03:08:08;;;;;;;3.63;2.70;;;11.70;59.70;;;;;;2097602;28;20112;-61
2021/01/20 03:09:29;;;;;;;2.67;2.40;;;11.70;59.70;;;;;;2098076;28;20056;-61
2021/01/20 03:10:51;;;;;;;4.78;2.65;;;11.70;59.70;;;;;;2098168;28;20024;-61
2021/01/20 03:12:11;;;;;;;2.88;2.67;;;11.70;59.70;;;;;;2092319;28;20057;-61
2021/01/20 03:13:37;;;;;;;2.95;2.70;;;11.70;59.60;;;;;;2096739;28;20099;-61
2021/01/20 03:15:00;;;;;;;5.07;2.60;;;11.70;59.50;;;;;;2097882;28;20031;-60
2021/01/20 03:16:27;;;;;;;2.97;2.67;;;11.70;59.60;;;;;;2094778;28;20021;-60
2021/01/20 03:17:49;;;;;;;2.58;2.38;;;11.80;59.60;;;;;;2099776;28;20082;-60
2021/01/20 03:19:10;;;;;;;3.03;2.40;;;11.80;59.70;;;;;;2093612;28;20036;-61
2021/01/20 03:20:31;;;;;;;3.47;2.35;;;11.80;59.60;;;;;;2094657;28;20029;-61
2021/01/20 03:21:52;;;;;;;2.72;2.53;;;11.80;59.50;;;;;;2098829;28;20032;-61
2021/01/20 03:23:13;;;;;;;3.88;3.28;;;11.80;59.50;;;;;;2100343;28;20459;-61
2021/01/20 03:24:33;;;;;;;3.28;2.70;;;11.90;59.50;;;;;;2097645;28;20017;-61
2021/01/20 03:25:56;;;;;;;3.28;2.70;;;11.80;59.40;;;;;;2098886;28;20031;-61
2021/01/20 03:27:17;;;;;;;3.17;2.75;;;11.90;59.40;;;;;;2094272;28;20041;-61
2021/01/20 03:28:38;;;;;;;3.63;2.80;;;11.90;59.40;;;;;;2099091;28;20467;-61
2021/01/20 03:29:59;;;;;;;4.43;3.17;;;11.90;59.30;;;;;;2091909;28;20040;-62
2021/01/20 03:31:20;;;;;;;3.55;2.70;;;11.90;59.30;;;;;;2093844;28;20043;-62
2021/01/20 03:32:41;;;;;;;3.40;2.95;;;11.90;59.30;;;;;;2100039;28;20355;-62
2021/01/20 03:34:02;;;;;;;2.95;2.70;;;11.90;59.20;;;;;;2100311;28;20039;-60
2021/01/20 03:35:22;;;;;;;3.67;2.97;;;11.90;59.10;;;;;;2094522;28;20031;-61
2021/01/20 03:36:43;;;;;;;2.63;2.42;;;11.90;58.90;;;;;;2098340;28;20024;-62
2021/01/20 03:38:04;;;;;;;2.63;2.40;;;12.00;59.00;;;;;;2098399;28;20030;-61
2021/01/20 03:39:25;;;;;;;3.85;2.75;;;12.00;59.10;;;;;;2097770;28;20032;-61
2021/01/20 03:40:46;;;;;;;3.47;3.13;;;12.00;59.00;;;;;;2098555;28;20112;-62
2021/01/20 03:42:07;;;;;;;4.63;2.58;;;12.00;58.90;;;;;;2098739;28;20458;-61
2021/01/20 03:43:28;;;;;;;4.03;2.75;;;12.00;59.10;;;;;;2098912;28;20025;-61
2021/01/20 03:44:48;;;;;;;3.85;2.72;;;12.00;59.10;;;;;;2092089;28;20053;-61
2021/01/20 03:46:09;;;;;;;3.22;2.58;;;12.00;59.00;;;;;;2091539;28;20036;-61
2021/01/20 03:47:30;;;;;;;3.53;3.10;;;12.10;59.00;;;;;;2099951;28;20032;-61
2021/01/20 03:48:51;;;;;;;3.53;3.03;;;12.00;59.00;;;;;;2089633;28;20455;-61
2021/01/20 03:50:12;;;;;;;3.22;2.80;;;12.10;58.90;;;;;;2092496;28;20060;-61
2021/01/20 03:51:33;;;;;;;3.47;2.80;;;12.10;58.70;;;;;;2103222;28;20079;-61
2021/01/20 03:52:54;;;;;;;4.75;3.08;;;12.10;58.60;;;;;;2099903;28;20060;-61
2021/01/20 03:54:15;;;;;;;3.13;2.67;;;12.10;58.50;;;;;;2095708;28;20118;-61
2021/01/20 03:55:36;;;;;;;5.28;2.65;;;12.10;58.40;;;;;;2099542;28;20383;-61
2021/01/20 03:56:56;;;;;;;3.15;2.85;;;12.10;58.50;;;;;;2090789;28;20031;-60
2021/01/20 03:58:17;;;;;;;4.15;3.05;;;12.10;58.50;;;;;;2093388;28;20265;-61
2021/01/20 03:59:38;;;;;;;3.85;2.75;;;12.10;58.40;;;;;;2098735;28;20470;-61
2021/01/20 04:00:59;;;;;;;3.15;2.65;;;12.20;58.50;;;;;;2101403;28;20069;-61
2021/01/20 04:02:20;;;;;;;3.10;2.80;;;12.10;58.30;;;;;;2099219;28;20020;-62
2021/01/20 04:03:41;;;;;;;3.70;2.80;;;12.10;58.00;;;;;;2097671;28;20100;-61
2021/01/20 04:05:02;;;;;;;2.90;2.70;;;12.20;58.10;;;;;;2096018;28;20033;-61
2021/01/20 04:06:23;;;;;;;3.85;2.60;;;12.20;58.20;;;;;;2102025;28;20032;-61
2021/01/20 04:07:44;;;;;;;2.72;2.50;;;12.20;58.20;;;;;;2100189;28;20029;-61
2021/01/20 04:09:07;;;;;;;2.80;2.60;;;12.20;58.20;;;;;;2092249;28;20139;-62
2021/01/20 04:10:28;;;;;;;4.22;2.70;;;12.20;58.10;;;;;;2096362;28;20355;-61
2021/01/20 04:11:49;;;;;;;2.38;2.20;;;12.10;57.90;;;;;;2092328;28;20025;-62
2021/01/20 04:13:10;;;;;;;2.65;2.45;;;12.20;58.10;;;;;;2089185;28;20025;-62
2021/01/20 04:14:31;;;;;;;2.75;2.55;;;12.20;57.90;;;;;;2098431;28;20090;-62
2021/01/20 04:15:52;;;;;;;4.93;3.05;;;12.20;57.90;;;;;;2097253;28;20390;-61
2021/01/20 04:17:13;;;;;;;3.03;2.50;;;12.20;57.80;;;;;;2099804;28;20463;-61
2021/01/20 04:18:33;;;;;;;2.67;2.42;;;12.20;57.70;;;;;;2095577;28;20083;-62
2021/01/20 04:19:54;;;;;;;2.63;2.42;;;12.20;57.80;;;;;;2096704;28;20574;-62
2021/01/20 04:21:15;;;;;;;2.75;2.50;;;12.20;57.50;;;;;;2084062;28;20108;-60
2021/01/20 04:22:37;;;;;;;2.85;2.53;;;12.20;57.50;;;;;;2092247;28;20111;-62
2021/01/20 04:23:58;;;;;;;3.45;2.95;;;12.20;57.50;;;;;;2099550;28;20039;-61
2021/01/20 04:25:19;;;;;;;4.43;2.63;;;12.20;57.50;;;;;;2092191;28;20068;-62
2021/01/20 04:26:40;;;;;;;2.80;2.60;;;12.20;57.50;;;;;;2098571;28;20115;-62
2021/01/20 04:28:01;;;;;;;2.78;2.58;;;12.20;57.40;;;;;;2103999;28;20263;-62
2021/01/20 04:29:22;;;;;;;3.67;2.80;;;12.30;57.50;;;;;;2091650;28;20028;-62
2021/01/20 04:30:42;;;;;;;3.28;2.97;;;12.20;57.40;;;;;;2096001;28;20024;-62
2021/01/20 04:32:03;;;;;;;2.90;2.65;;;12.20;57.20;;;;;;2098733;28;20028;-62
2021/01/20 04:33:25;;;;;;;5.03;2.95;;;12.30;57.20;;;;;;2096047;28;20035;-61
2021/01/20 04:34:46;;;;;;;4.10;3.00;;;12.30;57.20;;;;;;2099434;28;20451;-61
2021/01/20 04:36:07;;;;;;;3.45;2.67;;;12.30;57.00;;;;;;2094152;28;20052;-63
2021/01/20 04:37:28;;;;;;;3.38;2.63;;;12.30;56.80;;;;;;2095306;28;20100;-62
2021/01/20 04:38:49;;;;;;;4.45;2.70;;;12.30;56.70;;;;;;2099039;28;20032;-62
2021/01/20 04:40:10;;;;;;;4.63;2.72;;;12.30;56.70;;;;;;2092341;28;20029;-62
2021/01/20 04:41:33;;;;;;;3.00;2.70;;;12.30;56.60;;;;;;2094610;28;20032;-61
2021/01/20 04:42:55;;;;;;;3.22;2.92;;;12.30;56.60;;;;;;2100380;28;20025;-63
2021/01/20 04:44:16;;;;;;;3.17;2.63;;;12.30;56.30;;;;;;2098043;28;20025;-62
2021/01/20 04:45:37;;;;;;;2.50;2.30;;;12.30;56.20;;;;;;2098254;28;20017;-63
2021/01/20 04:47:00;;;;;;;2.72;2.53;;;12.30;56.30;;;;;;2096470;28;20035;-63
2021/01/20 04:48:31;;;;;;;2.45;2.25;;;12.30;56.30;;;;;;2094371;28;20041;-63
2021/01/20 04:49:53;;;;;;;4.60;2.90;;;12.40;56.40;;;;;;2093463;28;20017;-62
2021/01/20 04:51:17;;;;;;;3.60;2.58;;;12.40;56.30;;;;;;2092312;28;20017;-62
2021/01/20 04:52:42;;;;;;;3.50;2.60;;;12.40;56.10;;;;;;2097507;28;20028;-61
2021/01/20 04:54:05;;;;;;;3.10;2.67;;;12.40;56.10;;;;;;2092179;28;20463;-61
2021/01/20 04:55:26;;;;;;;3.08;2.75;;;12.40;56.10;;;;;;2097416;28;20031;-61
2021/01/20 04:56:48;;;;;;;2.83;2.63;;;12.40;55.60;;;;;;2097545;28;20052;-61
2021/01/20 04:58:10;;;;;;;2.45;2.25;;;12.40;55.70;;;;;;2087807;28;20056;-61
2021/01/20 04:59:32;;;;;;;3.28;2.72;;;12.40;55.70;;;;;;2095224;28;20607;-61
2021/01/20 05:00:53;;;;;;;2.80;2.60;;;12.40;55.70;;;;;;2098125;28;20017;-61
2021/01/20 05:02:15;;;;;;;3.10;2.67;;;12.40;55.40;;;;;;2084020;28;20025;-61
2021/01/20 05:03:39;;;;;;;2.63;2.33;;;12.40;55.30;;;;;;2092544;28;20070;-61
2021/01/20 05:05:02;;;;;;;2.90;2.60;;;12.40;55.30;;;;;;2091912;28;20025;-60
2021/01/20 05:06:23;;;;;;;2.50;2.30;;;12.40;55.20;;;;;;2095612;28;20036;-60
2021/01/20 05:07:44;;;;;;;2.42;2.22;;;12.40;55.00;;;;;;2097176;28;20037;-61
2021/01/20 05:09:05;;;;;;;3.00;2.50;;;12.40;55.00;;;;;;2091392;28;20120;-62
2021/01/20 05:10:25;;;;;;;2.90;2.60;;;12.40;54.90;;;;;;2098953;28;20064;-62
2021/01/20 05:11:46;;;;;;;2.75;2.25;;;12.40;54.80;;;;;;2097127;28;20450;-62
2021/01/20 05:13:23;;;;;;;2.35;2.15;;;12.40;54.70;;;;;;2091362;28;20025;-61
2021/01/20 05:14:44;;;;;;;2.30;2.10;;;12.30;54.30;;;;;;2091283;28;20025;-62
2021/01/20 05:16:05;;;;;;;2.00;1.90;;;12.40;54.70;;;;;;2091334;28;20060;-62
2021/01/20 05:17:26;;;;;;;3.00;2.20;;;12.40;54.90;;;;;;2099164;28;20090;-61
2021/01/20 05:18:47;;;;;;;2.05;1.90;;;12.30;54.60;;;;;;2095916;28;20493;-62
2021/01/20 05:20:25;;;;;;;2.53;2.22;;;12.30;54.70;;;;;;2096897;28;20098;-62
2021/01/20 05:22:06;;;;;;;1.80;1.70;;;12.30;54.20;;;;;;2097258;28;20066;-62
2021/01/20 05:23:29;;;;;;;2.65;2.25;;;12.30;54.50;;;;;;2095727;28;20633;-62
2021/01/20 05:24:58;;;;;;;3.22;2.13;;;12.30;54.80;;;;;;2097328;28;20036;-62
2021/01/20 05:26:18;;;;;;;2.55;2.33;;;12.30;54.50;;;;;;2099118;28;20478;-62
2021/01/20 05:27:40;;;;;;;2.80;2.22;;;12.30;54.70;;;;;;2096587;28;20474;-61
2021/01/20 05:29:05;;;;;;;2.90;2.20;;;12.30;54.60;;;;;;2100287;28;20064;-61
2021/01/20 05:30:26;;;;;;;2.65;2.45;;;12.20;54.70;;;;;;2093554;28;20042;-61
2021/01/20 05:31:47;;;;;;;2.67;2.47;;;12.30;54.40;;;;;;2095623;28;20024;-62
2021/01/20 05:33:08;;;;;;;2.47;2.28;;;12.30;54.80;;;;;;2092993;28;20430;-62
2021/01/20 05:34:37;;;;;;;3.53;2.42;;;12.30;54.60;;;;;;2096039;28;20090;-62
2021/01/20 05:36:14;;;;;;;2.95;2.00;;;12.30;54.60;;;;;;2090267;28;20029;-62
2021/01/20 05:37:46;;;;;;;2.17;1.98;;;12.30;54.40;;;;;;2096372;28;20063;-62
2021/01/20 05:39:18;;;;;;;2.45;2.05;;;12.30;54.60;;;;;;2092229;28;20104;-62
2021/01/20 05:40:38;;;;;;;2.15;1.95;;;12.20;54.60;;;;;;2101121;28;20039;-62
2021/01/20 05:42:10;;;;;;;2.90;2.17;;;12.30;54.80;;;;;;2091928;28;20087;-62
2021/01/20 05:43:31;;;;;;;2.03;1.83;;;12.20;54.80;;;;;;2096994;28;20029;-62
2021/01/20 05:45:03;;;;;;;3.08;2.10;;;12.30;55.10;;;;;;2095722;28;20025;-62
2021/01/20 05:46:37;;;;;;;2.25;2.00;;;12.30;54.70;;;;;;2095865;28;20028;-62
2021/01/20 05:48:08;;;;;;;1.73;1.63;;;12.30;54.90;;;;;;2099293;28;20072;-61
2021/01/20 05:49:29;;;;;;;4.03;2.58;;;12.30;54.90;;;;;;2095041;28;20025;-61
2021/01/20 05:50:57;;;;;;;2.33;2.13;;;12.30;55.20;;;;;;2101428;28;20094;-62
2021/01/20 05:52:19;;;;;;;2.00;1.90;;;12.30;54.90;;;;;;2102032;28;20470;-62
2021/01/20 05:53:48;;;;;;;2.20;2.00;;;12.30;55.80;;;;;;2099011;28;20020;-62
2021/01/20 05:55:11;;;;;;;2.22;2.03;;;12.30;54.90;;;;;;2097585;28;20047;-62
2021/01/20 05:56:32;;;;;;;2.15;1.95;;;12.30;55.20;;;;;;2097299;28;20024;-63
2021/01/20 05:57:52;;;;;;;1.95;1.80;;;12.30;55.30;;;;;;2100310;28;20031;-62
2021/01/20 05:59:25;;;;;;;2.45;1.88;;;12.30;55.30;;;;;;2087509;28;20384;-62
2021/01/20 06:00:47;;;;;;;1.88;1.77;;;12.30;55.10;;;;;;2098438;28;20092;-61
2021/01/20 06:02:09;;;;;;;2.47;1.98;;;12.30;55.30;;;;;;2097203;28;20037;-61
2021/01/20 06:03:30;;;;;;;1.98;1.88;;;12.40;55.30;;;;;;2099456;28;20090;-61
2021/01/20 06:04:54;;;;;;;1.90;1.75;;;12.40;55.50;;;;;;2094816;28;20112;-62
2021/01/20 06:06:16;;;;;;;1.90;1.70;;;12.40;55.50;;;;;;2092210;28;20040;-62
2021/01/20 06:07:37;;;;;;;2.38;1.88;;;12.40;55.60;;;;;;2097252;28;20028;-62
2021/01/20 06:09:00;;;;;;;2.08;1.90;;;12.40;55.70;;;;;;2098614;28;20021;-62
2021/01/20 06:10:22;;;;;;;3.75;2.47;;;12.40;55.60;;;;;;2094237;28;20056;-61
2021/01/20 06:11:43;;;;;;;2.05;1.50;;;12.40;55.80;;;;;;2097687;28;20455;-62
2021/01/20 06:13:04;;;;;;;2.80;1.80;;;12.40;55.70;;;;;;2093054;28;20033;-62
2021/01/20 06:14:25;;;;;;;3.92;1.95;;;12.40;55.90;;;;;;2096726;28;20039;-62
2021/01/20 06:15:50;;;;;;;1.98;1.80;;;12.40;55.80;;;;;;2102776;28;20409;-63
2021/01/20 06:17:30;;;;;;;2.15;1.80;;;12.40;55.70;;;;;;2092246;28;20399;-62
2021/01/20 06:18:55;;;;;;;1.50;1.42;;;12.50;55.60;;;;;;2092741;28;20122;-62
2021/01/20 06:20:20;;;;;;;1.88;1.70;;;12.50;55.80;;;;;;2096930;28;20036;-62
2021/01/20 06:21:43;;;;;;;1.60;1.50;;;12.50;55.90;;;;;;2098971;28;20021;-61
2021/01/20 06:23:06;;;;;;;2.10;1.90;;;12.50;55.90;;;;;;2091960;28;20024;-61
2021/01/20 06:24:35;;;;;;;2.75;1.50;;;12.50;56.00;;;;;;2099567;28;20056;-62
2021/01/20 06:26:15;;;;;;;1.63;1.52;;;12.50;55.90;;;;;;2099149;28;20055;-62
2021/01/20 06:27:41;;;;;;;1.60;1.50;;;12.50;55.70;;;;;;2096952;28;20052;-62
2021/01/20 06:29:06;;;;;;;2.30;1.67;;;12.50;56.00;;;;;;2099879;28;20067;-61
2021/01/20 06:30:48;;;;;;;1.65;1.55;;;12.50;56.00;;;;;;2095489;28;20047;-62
2021/01/20 06:32:15;;;;;;;1.60;1.50;;;12.50;56.00;;;;;;2089165;28;20076;-61
2021/01/20 06:33:36;;;;;;;1.80;1.70;;;12.60;56.30;;;;;;2092668;28;20047;-62
2021/01/20 06:34:57;;;;;;;1.30;1.30;;;12.60;56.30;;;;;;2097348;28;20098;-62
2021/01/20 06:36:32;;;;;;;1.70;1.58;;;12.60;56.50;;;;;;2093047;28;20372;-62
2021/01/20 06:37:53;;;;;;;1.50;1.33;;;12.50;56.40;;;;;;2099561;28;20024;-62
2021/01/20 06:39:26;;;;;;;1.88;1.52;;;12.50;56.60;;;;;;2102477;28;20658;-62
2021/01/20 06:40:47;;;;;;;1.88;1.58;;;12.50;56.50;;;;;;2099932;28;20035;-61
2021/01/20 06:42:32;;;;;;;1.23;1.23;;;12.60;56.70;;;;;;2091935;28;20052;-61
2021/01/20 06:44:14;;;;;;;1.73;1.48;;;12.60;56.60;;;;;;2092253;28;20090;-61
2021/01/20 06:45:35;;;;;;;1.50;1.40;;;12.60;56.80;;;;;;2095010;28;20116;-61
2021/01/20 06:46:55;;;;;;;1.40;1.30;;;12.60;56.90;;;;;;2099454;28;20040;-62
2021/01/20 06:48:16;;;;;;;1.70;1.58;;;12.60;56.90;;;;;;2095763;28;20025;-61
2021/01/20 06:50:00;;;;;;;2.15;1.75;;;12.50;57.00;;;;;;2092784;28;20028;-62
2021/01/20 06:51:23;;;;;;;2.38;1.60;;;12.50;57.00;;;;;;2098034;28;20063;-62
2021/01/20 06:52:59;;;;;;;3.03;1.73;;;12.50;57.10;;;;;;2097435;28;20431;-61
2021/01/20 06:54:34;;;;;;;1.17;1.17;;;12.50;57.10;;;;;;2099412;28;20024;-62
2021/01/20 06:55:55;;;;;;;1.60;1.50;;;12.50;57.20;;;;;;2097251;28;20107;-62
2021/01/20 06:57:30;;;;;;;1.75;1.40;;;12.50;57.30;;;;;;2097134;28;20029;-62
2021/01/20 06:59:17;;;;;;;1.55;1.45;;;12.50;57.30;;;;;;2096238;28;20033;-63
2021/01/20 07:00:39;;;;;;;1.50;1.40;;;12.50;57.50;;;;;;2095318;28;20086;-61
2021/01/20 07:02:02;;;;;;;1.77;1.50;;;12.50;57.60;;;;;;2097172;28;20040;-62
2021/01/20 07:03:37;;;;;;;1.48;1.30;;;12.50;57.60;;;;;;2094941;28;20406;-62
2021/01/20 07:04:58;;;;;;;1.80;1.45;;;12.40;57.60;;;;;;2091353;28;20051;-63
2021/01/20 07:06:34;;;;;;;1.50;1.40;;;12.40;57.70;;;;;;2101297;28;20651;-63
2021/01/20 07:07:56;;;;;;;1.85;1.63;;;12.40;57.70;;;;;;2100196;28;20044;-62
2021/01/20 07:09:17;;;;;;;1.67;1.58;;;12.40;57.80;;;;;;2093712;28;20041;-62
2021/01/20 07:11:01;;;;;;;1.73;1.60;;;12.40;57.90;;;;;;2097266;28;20020;-62
2021/01/20 07:12:23;;;;;;;1.70;1.60;;;12.40;58.10;;;;;;2095277;28;20045;-62
2021/01/20 07:13:44;;;;;;;2.13;1.50;;;12.40;58.00;;;;;;2098803;28;20021;-61
2021/01/20 07:15:05;;;;;;;1.77;1.58;;;12.40;58.10;;;;;;2096623;28;20040;-62